Petaluma, California
Current Conditions -  °F | °C
As of 11:15 PM on Tuesday 21 Oct 2014 (Local Time) from KO69 Reporting Station
Broken Clouds Broken Clouds  
Wind Chill: 52°   Ceiling: 1800
Heat Index: 52°   Visibility: 10mi
Dew Point: 50°   Wind: 3mph
Humidity: 94%   Direction: 340°NNW
Pressure: 30.07"   Gusts: NA
Location:  38.23°N, 122.64°W
Report Text: KO69 220615Z AUTO 34003KT 10SM SCT003 BKN018 11/10 A3007 RMK AO1
Loading
Personal Weather Stations






























Interactive Weather Map
Tropical Storm Tracking
New forecast layout! Learn more

10-Day Weather Forecast

Advertisements
Track Severe Weather on mobile